sensor_id;sensor_type;location;lat;lon;timestamp;P1;durP1;ratioP1;P2;durP2;ratioP2
72117;SDS011;59992;47.490;8.736;2023-07-20T00:00:02;4.40;;;1.80;;
72117;SDS011;59992;47.490;8.736;2023-07-20T00:02:53;3.00;;;1.70;;
72117;SDS011;59992;47.490;8.736;2023-07-20T00:06:03;4.30;;;1.70;;
72117;SDS011;59992;47.490;8.736;2023-07-20T00:08:54;5.90;;;2.20;;
72117;SDS011;59992;47.490;8.736;2023-07-20T00:11:49;4.20;;;1.80;;
72117;SDS011;59992;47.490;8.736;2023-07-20T00:14:39;5.10;;;2.10;;
72117;SDS011;59992;47.490;8.736;2023-07-20T00:17:29;5.80;;;1.90;;
72117;SDS011;59992;47.490;8.736;2023-07-20T00:20:20;4.50;;;1.90;;
72117;SDS011;59992;47.490;8.736;2023-07-20T00:23:10;4.30;;;1.50;;
72117;SDS011;59992;47.490;8.736;2023-07-20T00:26:00;4.50;;;1.90;;
72117;SDS011;59992;47.490;8.736;2023-07-20T00:28:50;5.30;;;1.90;;
72117;SDS011;59992;47.490;8.736;2023-07-20T00:31:40;3.90;;;1.60;;
72117;SDS011;59992;47.490;8.736;2023-07-20T00:34:30;2.90;;;1.60;;
72117;SDS011;59992;47.490;8.736;2023-07-20T00:37:21;3.70;;;1.60;;
72117;SDS011;59992;47.490;8.736;2023-07-20T00:40:11;5.10;;;1.70;;
72117;SDS011;59992;47.490;8.736;2023-07-20T00:43:01;4.70;;;1.60;;
72117;SDS011;59992;47.490;8.736;2023-07-20T00:45:52;4.70;;;1.50;;
72117;SDS011;59992;47.490;8.736;2023-07-20T00:48:42;4.60;;;1.40;;
72117;SDS011;59992;47.490;8.736;2023-07-20T00:51:32;6.90;;;1.50;;
72117;SDS011;59992;47.490;8.736;2023-07-20T00:54:23;3.80;;;1.40;;
72117;SDS011;59992;47.490;8.736;2023-07-20T00:57:13;3.20;;;1.50;;
72117;SDS011;59992;47.490;8.736;2023-07-20T01:00:06;3.70;;;1.40;;
72117;SDS011;59992;47.490;8.736;2023-07-20T01:02:56;4.70;;;1.80;;
72117;SDS011;59992;47.490;8.736;2023-07-20T01:05:48;4.00;;;1.50;;
72117;SDS011;59992;47.490;8.736;2023-07-20T01:08:45;3.90;;;1.50;;
72117;SDS011;59992;47.490;8.736;2023-07-20T01:11:47;3.50;;;1.30;;
72117;SDS011;59992;47.490;8.736;2023-07-20T01:14:42;2.50;;;1.10;;
72117;SDS011;59992;47.490;8.736;2023-07-20T01:17:33;2.30;;;1.20;;
72117;SDS011;59992;47.490;8.736;2023-07-20T01:20:23;2.50;;;1.40;;
72117;SDS011;59992;47.490;8.736;2023-07-20T01:23:32;4.20;;;1.40;;
72117;SDS011;59992;47.490;8.736;2023-07-20T01:26:41;2.10;;;1.10;;
72117;SDS011;59992;47.490;8.736;2023-07-20T01:29:54;4.10;;;1.50;;
72117;SDS011;59992;47.490;8.736;2023-07-20T01:32:57;3.30;;;1.30;;
72117;SDS011;59992;47.490;8.736;2023-07-20T01:35:52;2.40;;;1.10;;
72117;SDS011;59992;47.490;8.736;2023-07-20T01:38:44;3.40;;;1.50;;
72117;SDS011;59992;47.490;8.736;2023-07-20T01:41:35;4.20;;;1.50;;
72117;SDS011;59992;47.490;8.736;2023-07-20T01:44:25;5.50;;;1.30;;
72117;SDS011;59992;47.490;8.736;2023-07-20T01:47:16;3.50;;;1.10;;
72117;SDS011;59992;47.490;8.736;2023-07-20T01:50:07;4.20;;;1.40;;
72117;SDS011;59992;47.490;8.736;2023-07-20T01:52:57;6.10;;;1.30;;
72117;SDS011;59992;47.490;8.736;2023-07-20T01:55:48;5.20;;;1.30;;
72117;SDS011;59992;47.490;8.736;2023-07-20T01:58:40;4.90;;;1.20;;
72117;SDS011;59992;47.490;8.736;2023-07-20T02:01:31;2.90;;;1.20;;
72117;SDS011;59992;47.490;8.736;2023-07-20T02:04:21;3.50;;;1.30;;
72117;SDS011;59992;47.490;8.736;2023-07-20T02:07:11;2.50;;;1.40;;
72117;SDS011;59992;47.490;8.736;2023-07-20T02:10:01;3.10;;;1.60;;
72117;SDS011;59992;47.490;8.736;2023-07-20T02:12:51;2.80;;;1.60;;
72117;SDS011;59992;47.490;8.736;2023-07-20T02:15:42;2.90;;;1.30;;
72117;SDS011;59992;47.490;8.736;2023-07-20T02:18:34;2.00;;;1.30;;
72117;SDS011;59992;47.490;8.736;2023-07-20T02:21:24;3.20;;;1.20;;
72117;SDS011;59992;47.490;8.736;2023-07-20T02:24:15;3.30;;;1.20;;
72117;SDS011;59992;47.490;8.736;2023-07-20T02:27:05;2.40;;;1.20;;
72117;SDS011;59992;47.490;8.736;2023-07-20T02:29:56;3.60;;;1.60;;
72117;SDS011;59992;47.490;8.736;2023-07-20T02:32:46;4.20;;;1.30;;
72117;SDS011;59992;47.490;8.736;2023-07-20T02:35:36;3.80;;;1.50;;
72117;SDS011;59992;47.490;8.736;2023-07-20T02:38:26;2.20;;;1.20;;
72117;SDS011;59992;47.490;8.736;2023-07-20T02:41:16;4.30;;;1.60;;
72117;SDS011;59992;47.490;8.736;2023-07-20T02:44:06;5.10;;;1.60;;
72117;SDS011;59992;47.490;8.736;2023-07-20T02:46:56;3.70;;;1.30;;
72117;SDS011;59992;47.490;8.736;2023-07-20T02:49:46;4.20;;;1.60;;
72117;SDS011;59992;47.490;8.736;2023-07-20T02:52:36;5.10;;;1.70;;
72117;SDS011;59992;47.490;8.736;2023-07-20T02:55:27;4.70;;;1.40;;
72117;SDS011;59992;47.490;8.736;2023-07-20T02:58:17;3.30;;;1.60;;
72117;SDS011;59992;47.490;8.736;2023-07-20T03:01:07;5.70;;;1.60;;
72117;SDS011;59992;47.490;8.736;2023-07-20T03:03:58;2.50;;;1.50;;
72117;SDS011;59992;47.490;8.736;2023-07-20T03:06:48;2.90;;;1.40;;
72117;SDS011;59992;47.490;8.736;2023-07-20T03:09:38;2.60;;;1.40;;
72117;SDS011;59992;47.490;8.736;2023-07-20T03:12:30;4.60;;;1.60;;
72117;SDS011;59992;47.490;8.736;2023-07-20T03:15:21;2.30;;;1.30;;
72117;SDS011;59992;47.490;8.736;2023-07-20T03:18:12;2.70;;;1.50;;
72117;SDS011;59992;47.490;8.736;2023-07-20T03:21:02;3.50;;;1.70;;
72117;SDS011;59992;47.490;8.736;2023-07-20T03:23:53;3.90;;;1.50;;
72117;SDS011;59992;47.490;8.736;2023-07-20T03:26:43;4.20;;;1.70;;
72117;SDS011;59992;47.490;8.736;2023-07-20T03:29:33;4.60;;;1.50;;
72117;SDS011;59992;47.490;8.736;2023-07-20T03:32:23;3.80;;;1.60;;
72117;SDS011;59992;47.490;8.736;2023-07-20T03:35:13;3.70;;;2.00;;
72117;SDS011;59992;47.490;8.736;2023-07-20T03:38:04;6.50;;;1.50;;
72117;SDS011;59992;47.490;8.736;2023-07-20T03:40:55;3.60;;;1.50;;
72117;SDS011;59992;47.490;8.736;2023-07-20T03:43:46;3.30;;;1.40;;
72117;SDS011;59992;47.490;8.736;2023-07-20T03:46:37;4.40;;;1.50;;
72117;SDS011;59992;47.490;8.736;2023-07-20T03:49:27;3.20;;;1.50;;
72117;SDS011;59992;47.490;8.736;2023-07-20T03:52:17;3.20;;;1.70;;
72117;SDS011;59992;47.490;8.736;2023-07-20T03:55:08;5.00;;;1.80;;
72117;SDS011;59992;47.490;8.736;2023-07-20T03:57:58;3.20;;;1.60;;
72117;SDS011;59992;47.490;8.736;2023-07-20T04:00:49;4.60;;;1.70;;
72117;SDS011;59992;47.490;8.736;2023-07-20T04:03:40;3.50;;;1.70;;
72117;SDS011;59992;47.490;8.736;2023-07-20T04:06:31;3.20;;;1.70;;
72117;SDS011;59992;47.490;8.736;2023-07-20T04:09:21;5.60;;;1.70;;
72117;SDS011;59992;47.490;8.736;2023-07-20T04:12:12;2.40;;;1.50;;
72117;SDS011;59992;47.490;8.736;2023-07-20T04:15:02;3.10;;;1.70;;
72117;SDS011;59992;47.490;8.736;2023-07-20T04:17:53;5.80;;;1.80;;
72117;SDS011;59992;47.490;8.736;2023-07-20T04:20:43;3.70;;;1.50;;
72117;SDS011;59992;47.490;8.736;2023-07-20T04:23:34;4.00;;;2.00;;
72117;SDS011;59992;47.490;8.736;2023-07-20T04:26:24;3.20;;;1.90;;
72117;SDS011;59992;47.490;8.736;2023-07-20T04:29:14;5.50;;;1.80;;
72117;SDS011;59992;47.490;8.736;2023-07-20T04:32:05;4.70;;;2.20;;
72117;SDS011;59992;47.490;8.736;2023-07-20T04:34:56;4.10;;;1.90;;
72117;SDS011;59992;47.490;8.736;2023-07-20T04:37:46;4.10;;;1.70;;
72117;SDS011;59992;47.490;8.736;2023-07-20T04:40:36;3.50;;;1.70;;
72117;SDS011;59992;47.490;8.736;2023-07-20T04:43:26;3.80;;;1.60;;
72117;SDS011;59992;47.490;8.736;2023-07-20T04:46:17;4.30;;;1.80;;
72117;SDS011;59992;47.490;8.736;2023-07-20T04:49:08;10.00;;;2.00;;
72117;SDS011;59992;47.490;8.736;2023-07-20T04:51:59;3.60;;;2.00;;
72117;SDS011;59992;47.490;8.736;2023-07-20T04:54:51;5.60;;;2.00;;
72117;SDS011;59992;47.490;8.736;2023-07-20T04:57:41;4.40;;;2.50;;
72117;SDS011;59992;47.490;8.736;2023-07-20T05:00:31;6.40;;;1.90;;
72117;SDS011;59992;47.490;8.736;2023-07-20T05:03:22;3.60;;;2.10;;
72117;SDS011;59992;47.490;8.736;2023-07-20T05:06:12;3.70;;;1.80;;
72117;SDS011;59992;47.490;8.736;2023-07-20T05:09:02;4.10;;;2.00;;
72117;SDS011;59992;47.490;8.736;2023-07-20T05:11:53;4.40;;;1.90;;
72117;SDS011;59992;47.490;8.736;2023-07-20T05:14:44;6.80;;;2.10;;
72117;SDS011;59992;47.490;8.736;2023-07-20T05:17:34;8.60;;;2.20;;
72117;SDS011;59992;47.490;8.736;2023-07-20T05:20:25;4.70;;;1.90;;
72117;SDS011;59992;47.490;8.736;2023-07-20T05:23:17;4.80;;;1.90;;
72117;SDS011;59992;47.490;8.736;2023-07-20T05:26:08;5.10;;;2.10;;
72117;SDS011;59992;47.490;8.736;2023-07-20T05:28:58;3.90;;;2.00;;
72117;SDS011;59992;47.490;8.736;2023-07-20T05:31:48;4.20;;;2.00;;
72117;SDS011;59992;47.490;8.736;2023-07-20T05:34:38;7.70;;;2.30;;
72117;SDS011;59992;47.490;8.736;2023-07-20T05:37:28;7.10;;;2.20;;
72117;SDS011;59992;47.490;8.736;2023-07-20T05:40:18;3.80;;;2.10;;
72117;SDS011;59992;47.490;8.736;2023-07-20T05:43:10;4.40;;;2.00;;
72117;SDS011;59992;47.490;8.736;2023-07-20T05:46:01;6.20;;;2.10;;
72117;SDS011;59992;47.490;8.736;2023-07-20T05:48:52;4.70;;;2.70;;
72117;SDS011;59992;47.490;8.736;2023-07-20T05:51:42;7.30;;;2.30;;
72117;SDS011;59992;47.490;8.736;2023-07-20T05:54:34;3.40;;;2.10;;
72117;SDS011;59992;47.490;8.736;2023-07-20T05:57:24;5.50;;;2.50;;
72117;SDS011;59992;47.490;8.736;2023-07-20T06:00:15;5.80;;;2.20;;
72117;SDS011;59992;47.490;8.736;2023-07-20T06:03:13;5.80;;;2.00;;
72117;SDS011;59992;47.490;8.736;2023-07-20T06:06:04;7.20;;;1.90;;
72117;SDS011;59992;47.490;8.736;2023-07-20T06:08:56;6.10;;;2.40;;
72117;SDS011;59992;47.490;8.736;2023-07-20T06:11:46;5.90;;;2.40;;
72117;SDS011;59992;47.490;8.736;2023-07-20T06:14:36;5.40;;;2.00;;
72117;SDS011;59992;47.490;8.736;2023-07-20T06:17:26;5.20;;;2.20;;
72117;SDS011;59992;47.490;8.736;2023-07-20T06:20:16;3.80;;;1.70;;
72117;SDS011;59992;47.490;8.736;2023-07-20T06:23:06;4.70;;;2.20;;
72117;SDS011;59992;47.490;8.736;2023-07-20T06:25:57;4.90;;;2.00;;
72117;SDS011;59992;47.490;8.736;2023-07-20T06:28:47;4.20;;;1.90;;
72117;SDS011;59992;47.490;8.736;2023-07-20T06:31:37;5.60;;;1.90;;
72117;SDS011;59992;47.490;8.736;2023-07-20T06:34:27;3.70;;;1.90;;
72117;SDS011;59992;47.490;8.736;2023-07-20T06:37:18;6.30;;;2.10;;
72117;SDS011;59992;47.490;8.736;2023-07-20T06:40:08;5.80;;;2.10;;
72117;SDS011;59992;47.490;8.736;2023-07-20T06:42:59;4.60;;;1.60;;
72117;SDS011;59992;47.490;8.736;2023-07-20T06:45:52;5.90;;;2.00;;
72117;SDS011;59992;47.490;8.736;2023-07-20T06:48:42;4.70;;;2.10;;
72117;SDS011;59992;47.490;8.736;2023-07-20T06:51:32;4.80;;;1.90;;
72117;SDS011;59992;47.490;8.736;2023-07-20T06:54:23;7.60;;;2.00;;
72117;SDS011;59992;47.490;8.736;2023-07-20T06:57:13;4.70;;;1.80;;
72117;SDS011;59992;47.490;8.736;2023-07-20T07:00:07;4.00;;;1.90;;
72117;SDS011;59992;47.490;8.736;2023-07-20T07:02:59;4.60;;;1.90;;
72117;SDS011;59992;47.490;8.736;2023-07-20T07:05:50;6.70;;;2.00;;
72117;SDS011;59992;47.490;8.736;2023-07-20T07:08:43;4.70;;;2.20;;
72117;SDS011;59992;47.490;8.736;2023-07-20T07:11:34;5.20;;;2.10;;
72117;SDS011;59992;47.490;8.736;2023-07-20T07:14:25;4.10;;;1.90;;
72117;SDS011;59992;47.490;8.736;2023-07-20T07:17:16;4.70;;;2.00;;
72117;SDS011;59992;47.490;8.736;2023-07-20T07:20:07;6.10;;;2.10;;
72117;SDS011;59992;47.490;8.736;2023-07-20T07:22:58;6.50;;;2.50;;
72117;SDS011;59992;47.490;8.736;2023-07-20T07:25:48;4.90;;;2.00;;
72117;SDS011;59992;47.490;8.736;2023-07-20T07:28:38;4.40;;;2.00;;
72117;SDS011;59992;47.490;8.736;2023-07-20T07:31:28;7.10;;;2.00;;
72117;SDS011;59992;47.490;8.736;2023-07-20T07:34:18;3.90;;;1.70;;
72117;SDS011;59992;47.490;8.736;2023-07-20T07:37:08;5.50;;;2.10;;
72117;SDS011;59992;47.490;8.736;2023-07-20T07:39:58;4.70;;;1.90;;
72117;SDS011;59992;47.490;8.736;2023-07-20T07:42:48;11.20;;;2.60;;
72117;SDS011;59992;47.490;8.736;2023-07-20T07:45:39;6.50;;;2.20;;
72117;SDS011;59992;47.490;8.736;2023-07-20T07:48:30;3.90;;;2.10;;
72117;SDS011;59992;47.490;8.736;2023-07-20T07:51:20;5.10;;;2.10;;
72117;SDS011;59992;47.490;8.736;2023-07-20T07:54:10;5.00;;;1.90;;
72117;SDS011;59992;47.490;8.736;2023-07-20T07:57:00;4.50;;;2.20;;
72117;SDS011;59992;47.490;8.736;2023-07-20T07:59:50;4.60;;;2.20;;
72117;SDS011;59992;47.490;8.736;2023-07-20T08:02:40;6.70;;;2.30;;
72117;SDS011;59992;47.490;8.736;2023-07-20T08:05:31;4.20;;;2.00;;
72117;SDS011;59992;47.490;8.736;2023-07-20T08:08:22;7.00;;;2.10;;
72117;SDS011;59992;47.490;8.736;2023-07-20T08:11:12;7.30;;;2.10;;
72117;SDS011;59992;47.490;8.736;2023-07-20T08:14:02;6.50;;;1.90;;
72117;SDS011;59992;47.490;8.736;2023-07-20T08:16:52;7.50;;;2.00;;
72117;SDS011;59992;47.490;8.736;2023-07-20T08:19:43;4.90;;;1.90;;
72117;SDS011;59992;47.490;8.736;2023-07-20T08:22:33;4.50;;;2.00;;
72117;SDS011;59992;47.490;8.736;2023-07-20T08:25:23;6.00;;;1.80;;
72117;SDS011;59992;47.490;8.736;2023-07-20T08:28:15;5.00;;;2.20;;
72117;SDS011;59992;47.490;8.736;2023-07-20T08:31:06;3.80;;;1.70;;
72117;SDS011;59992;47.490;8.736;2023-07-20T08:33:56;5.40;;;1.90;;
72117;SDS011;59992;47.490;8.736;2023-07-20T08:36:46;6.60;;;2.10;;
72117;SDS011;59992;47.490;8.736;2023-07-20T08:39:36;7.90;;;2.00;;
72117;SDS011;59992;47.490;8.736;2023-07-20T08:42:26;3.80;;;2.00;;
72117;SDS011;59992;47.490;8.736;2023-07-20T08:45:18;4.00;;;2.20;;
72117;SDS011;59992;47.490;8.736;2023-07-20T08:48:10;4.00;;;2.00;;
72117;SDS011;59992;47.490;8.736;2023-07-20T08:51:01;7.90;;;2.10;;
72117;SDS011;59992;47.490;8.736;2023-07-20T08:53:53;7.80;;;2.00;;
72117;SDS011;59992;47.490;8.736;2023-07-20T08:56:43;4.60;;;1.80;;
72117;SDS011;59992;47.490;8.736;2023-07-20T08:59:35;3.10;;;1.50;;
72117;SDS011;59992;47.490;8.736;2023-07-20T09:02:26;6.10;;;1.70;;
72117;SDS011;59992;47.490;8.736;2023-07-20T09:05:17;4.20;;;2.00;;
72117;SDS011;59992;47.490;8.736;2023-07-20T09:08:08;4.40;;;2.00;;
72117;SDS011;59992;47.490;8.736;2023-07-20T09:10:58;8.70;;;1.80;;
72117;SDS011;59992;47.490;8.736;2023-07-20T09:13:49;5.90;;;1.90;;
72117;SDS011;59992;47.490;8.736;2023-07-20T09:16:53;5.60;;;2.10;;
72117;SDS011;59992;47.490;8.736;2023-07-20T09:19:47;4.30;;;1.90;;
72117;SDS011;59992;47.490;8.736;2023-07-20T09:22:37;4.70;;;1.80;;
72117;SDS011;59992;47.490;8.736;2023-07-20T09:25:28;3.10;;;1.60;;
72117;SDS011;59992;47.490;8.736;2023-07-20T09:28:18;4.20;;;1.90;;
72117;SDS011;59992;47.490;8.736;2023-07-20T09:31:15;5.10;;;1.80;;
72117;SDS011;59992;47.490;8.736;2023-07-20T09:34:06;5.20;;;1.60;;
72117;SDS011;59992;47.490;8.736;2023-07-20T09:36:56;6.90;;;1.60;;
72117;SDS011;59992;47.490;8.736;2023-07-20T09:39:47;4.60;;;1.70;;
72117;SDS011;59992;47.490;8.736;2023-07-20T09:42:40;7.10;;;1.80;;
72117;SDS011;59992;47.490;8.736;2023-07-20T09:45:31;3.00;;;1.60;;
72117;SDS011;59992;47.490;8.736;2023-07-20T09:48:23;4.00;;;1.80;;
72117;SDS011;59992;47.490;8.736;2023-07-20T09:51:14;3.40;;;1.70;;
72117;SDS011;59992;47.490;8.736;2023-07-20T09:54:04;4.10;;;1.60;;
72117;SDS011;59992;47.490;8.736;2023-07-20T09:56:54;4.20;;;1.70;;
72117;SDS011;59992;47.490;8.736;2023-07-20T09:59:46;7.40;;;1.50;;
72117;SDS011;59992;47.490;8.736;2023-07-20T10:02:36;4.10;;;1.50;;
72117;SDS011;59992;47.490;8.736;2023-07-20T10:05:32;2.50;;;1.40;;
72117;SDS011;59992;47.490;8.736;2023-07-20T10:08:25;2.80;;;1.50;;
72117;SDS011;59992;47.490;8.736;2023-07-20T10:11:17;4.40;;;1.50;;
72117;SDS011;59992;47.490;8.736;2023-07-20T10:14:10;8.00;;;1.80;;
72117;SDS011;59992;47.490;8.736;2023-07-20T10:17:02;3.50;;;1.50;;
72117;SDS011;59992;47.490;8.736;2023-07-20T10:19:56;2.60;;;1.20;;
72117;SDS011;59992;47.490;8.736;2023-07-20T10:22:51;3.10;;;1.50;;
72117;SDS011;59992;47.490;8.736;2023-07-20T10:25:44;2.40;;;1.40;;
72117;SDS011;59992;47.490;8.736;2023-07-20T10:28:35;4.80;;;1.70;;
72117;SDS011;59992;47.490;8.736;2023-07-20T10:31:26;3.70;;;1.80;;
72117;SDS011;59992;47.490;8.736;2023-07-20T10:34:17;3.60;;;1.50;;
72117;SDS011;59992;47.490;8.736;2023-07-20T10:37:07;4.00;;;2.10;;
72117;SDS011;59992;47.490;8.736;2023-07-20T10:39:57;3.80;;;1.70;;
72117;SDS011;59992;47.490;8.736;2023-07-20T10:43:08;4.70;;;1.80;;
72117;SDS011;59992;47.490;8.736;2023-07-20T10:45:58;3.10;;;1.60;;
72117;SDS011;59992;47.490;8.736;2023-07-20T10:49:00;4.70;;;1.70;;
72117;SDS011;59992;47.490;8.736;2023-07-20T10:51:55;4.80;;;2.00;;
72117;SDS011;59992;47.490;8.736;2023-07-20T10:54:50;4.60;;;2.00;;
72117;SDS011;59992;47.490;8.736;2023-07-20T10:57:40;6.40;;;1.70;;
72117;SDS011;59992;47.490;8.736;2023-07-20T11:00:30;4.20;;;1.40;;
72117;SDS011;59992;47.490;8.736;2023-07-20T11:03:27;3.80;;;1.60;;
72117;SDS011;59992;47.490;8.736;2023-07-20T11:06:31;3.40;;;1.50;;
72117;SDS011;59992;47.490;8.736;2023-07-20T11:09:22;3.60;;;1.50;;
72117;SDS011;59992;47.490;8.736;2023-07-20T11:12:13;1.90;;;1.20;;
72117;SDS011;59992;47.490;8.736;2023-07-20T11:15:05;5.10;;;1.70;;
72117;SDS011;59992;47.490;8.736;2023-07-20T11:18:03;2.60;;;1.30;;
72117;SDS011;59992;47.490;8.736;2023-07-20T11:21:01;3.20;;;1.30;;
72117;SDS011;59992;47.490;8.736;2023-07-20T11:23:51;2.40;;;1.60;;
72117;SDS011;59992;47.490;8.736;2023-07-20T11:26:45;2.80;;;1.40;;
72117;SDS011;59992;47.490;8.736;2023-07-20T11:29:37;4.70;;;1.30;;
72117;SDS011;59992;47.490;8.736;2023-07-20T11:32:27;3.70;;;1.40;;
72117;SDS011;59992;47.490;8.736;2023-07-20T11:35:17;2.50;;;1.60;;
72117;SDS011;59992;47.490;8.736;2023-07-20T11:38:07;5.80;;;1.50;;
72117;SDS011;59992;47.490;8.736;2023-07-20T11:40:57;3.00;;;1.70;;
72117;SDS011;59992;47.490;8.736;2023-07-20T11:43:48;4.40;;;1.60;;
72117;SDS011;59992;47.490;8.736;2023-07-20T11:46:38;3.80;;;1.40;;
72117;SDS011;59992;47.490;8.736;2023-07-20T11:49:29;3.90;;;1.50;;
72117;SDS011;59992;47.490;8.736;2023-07-20T11:52:22;3.10;;;1.50;;
72117;SDS011;59992;47.490;8.736;2023-07-20T11:55:15;4.10;;;1.70;;
72117;SDS011;59992;47.490;8.736;2023-07-20T11:58:06;5.50;;;1.80;;
72117;SDS011;59992;47.490;8.736;2023-07-20T12:00:57;4.70;;;1.50;;
72117;SDS011;59992;47.490;8.736;2023-07-20T12:03:49;2.40;;;1.40;;
72117;SDS011;59992;47.490;8.736;2023-07-20T12:06:39;2.80;;;1.40;;
72117;SDS011;59992;47.490;8.736;2023-07-20T12:09:29;4.10;;;1.60;;
72117;SDS011;59992;47.490;8.736;2023-07-20T12:12:19;3.20;;;1.60;;
72117;SDS011;59992;47.490;8.736;2023-07-20T12:15:13;3.00;;;1.20;;
72117;SDS011;59992;47.490;8.736;2023-07-20T12:18:05;4.70;;;1.30;;
72117;SDS011;59992;47.490;8.736;2023-07-20T12:20:59;4.40;;;1.50;;
72117;SDS011;59992;47.490;8.736;2023-07-20T12:23:49;4.90;;;1.30;;
72117;SDS011;59992;47.490;8.736;2023-07-20T12:26:40;5.00;;;1.20;;
72117;SDS011;59992;47.490;8.736;2023-07-20T12:29:31;3.00;;;1.30;;
72117;SDS011;59992;47.490;8.736;2023-07-20T12:32:23;2.10;;;1.20;;
72117;SDS011;59992;47.490;8.736;2023-07-20T12:35:13;2.30;;;1.20;;
72117;SDS011;59992;47.490;8.736;2023-07-20T12:38:03;3.90;;;1.40;;
72117;SDS011;59992;47.490;8.736;2023-07-20T12:40:53;3.10;;;1.60;;
72117;SDS011;59992;47.490;8.736;2023-07-20T12:43:44;2.30;;;1.00;;
72117;SDS011;59992;47.490;8.736;2023-07-20T12:46:34;3.50;;;1.30;;
72117;SDS011;59992;47.490;8.736;2023-07-20T12:49:25;2.40;;;1.00;;
72117;SDS011;59992;47.490;8.736;2023-07-20T12:52:15;3.00;;;1.20;;
72117;SDS011;59992;47.490;8.736;2023-07-20T12:55:07;3.70;;;1.20;;
72117;SDS011;59992;47.490;8.736;2023-07-20T12:57:58;4.10;;;1.20;;
72117;SDS011;59992;47.490;8.736;2023-07-20T13:00:48;4.30;;;1.30;;
72117;SDS011;59992;47.490;8.736;2023-07-20T13:03:38;3.70;;;1.30;;
72117;SDS011;59992;47.490;8.736;2023-07-20T13:06:28;2.40;;;1.40;;
72117;SDS011;59992;47.490;8.736;2023-07-20T13:09:19;4.20;;;1.30;;
72117;SDS011;59992;47.490;8.736;2023-07-20T13:12:09;3.00;;;1.30;;
72117;SDS011;59992;47.490;8.736;2023-07-20T13:15:01;5.00;;;1.20;;
72117;SDS011;59992;47.490;8.736;2023-07-20T13:17:52;5.80;;;1.50;;
72117;SDS011;59992;47.490;8.736;2023-07-20T13:20:43;2.80;;;1.30;;
72117;SDS011;59992;47.490;8.736;2023-07-20T13:23:33;5.40;;;1.10;;
72117;SDS011;59992;47.490;8.736;2023-07-20T13:26:23;3.00;;;1.50;;
72117;SDS011;59992;47.490;8.736;2023-07-20T13:29:13;3.30;;;1.20;;
72117;SDS011;59992;47.490;8.736;2023-07-20T13:32:05;2.60;;;1.30;;
72117;SDS011;59992;47.490;8.736;2023-07-20T13:34:56;4.10;;;1.40;;
72117;SDS011;59992;47.490;8.736;2023-07-20T13:37:46;3.30;;;1.40;;
72117;SDS011;59992;47.490;8.736;2023-07-20T13:40:37;2.60;;;1.30;;
72117;SDS011;59992;47.490;8.736;2023-07-20T13:43:27;4.60;;;1.40;;
72117;SDS011;59992;47.490;8.736;2023-07-20T13:46:18;5.40;;;1.50;;
72117;SDS011;59992;47.490;8.736;2023-07-20T13:49:08;2.90;;;1.60;;
72117;SDS011;59992;47.490;8.736;2023-07-20T13:51:59;2.20;;;1.40;;
72117;SDS011;59992;47.490;8.736;2023-07-20T13:54:50;3.40;;;1.40;;
72117;SDS011;59992;47.490;8.736;2023-07-20T13:57:40;5.90;;;1.20;;
72117;SDS011;59992;47.490;8.736;2023-07-20T14:00:30;4.90;;;1.60;;
72117;SDS011;59992;47.490;8.736;2023-07-20T14:03:20;7.10;;;1.50;;
72117;SDS011;59992;47.490;8.736;2023-07-20T14:06:11;6.50;;;1.60;;
72117;SDS011;59992;47.490;8.736;2023-07-20T14:09:01;3.40;;;1.10;;
72117;SDS011;59992;47.490;8.736;2023-07-20T14:11:51;3.60;;;1.40;;
72117;SDS011;59992;47.490;8.736;2023-07-20T14:14:42;2.40;;;1.50;;
72117;SDS011;59992;47.490;8.736;2023-07-20T14:17:32;2.60;;;1.50;;
72117;SDS011;59992;47.490;8.736;2023-07-20T14:20:22;2.00;;;1.30;;
72117;SDS011;59992;47.490;8.736;2023-07-20T14:23:12;3.60;;;1.50;;
72117;SDS011;59992;47.490;8.736;2023-07-20T14:26:02;2.10;;;1.20;;
72117;SDS011;59992;47.490;8.736;2023-07-20T14:29:04;3.30;;;1.20;;
72117;SDS011;59992;47.490;8.736;2023-07-20T14:32:00;4.20;;;1.40;;
72117;SDS011;59992;47.490;8.736;2023-07-20T14:34:52;3.90;;;1.60;;
72117;SDS011;59992;47.490;8.736;2023-07-20T14:37:42;4.10;;;1.40;;
72117;SDS011;59992;47.490;8.736;2023-07-20T14:40:34;3.80;;;1.40;;
72117;SDS011;59992;47.490;8.736;2023-07-20T14:43:24;4.80;;;1.40;;
72117;SDS011;59992;47.490;8.736;2023-07-20T14:46:14;7.30;;;1.80;;
72117;SDS011;59992;47.490;8.736;2023-07-20T14:49:04;3.90;;;1.50;;
72117;SDS011;59992;47.490;8.736;2023-07-20T14:51:54;3.50;;;1.40;;
72117;SDS011;59992;47.490;8.736;2023-07-20T14:54:45;2.10;;;1.20;;
72117;SDS011;59992;47.490;8.736;2023-07-20T14:57:35;4.20;;;1.50;;
72117;SDS011;59992;47.490;8.736;2023-07-20T15:00:25;4.00;;;1.50;;
72117;SDS011;59992;47.490;8.736;2023-07-20T15:03:15;5.40;;;1.60;;
72117;SDS011;59992;47.490;8.736;2023-07-20T15:06:09;3.40;;;1.50;;
72117;SDS011;59992;47.490;8.736;2023-07-20T15:09:00;2.40;;;1.40;;
72117;SDS011;59992;47.490;8.736;2023-07-20T15:11:51;3.40;;;1.60;;
72117;SDS011;59992;47.490;8.736;2023-07-20T15:14:42;2.80;;;1.50;;
72117;SDS011;59992;47.490;8.736;2023-07-20T15:17:48;4.00;;;1.70;;
72117;SDS011;59992;47.490;8.736;2023-07-20T15:20:38;3.40;;;1.90;;
72117;SDS011;59992;47.490;8.736;2023-07-20T15:23:28;2.10;;;1.20;;
72117;SDS011;59992;47.490;8.736;2023-07-20T15:26:19;4.20;;;1.50;;
72117;SDS011;59992;47.490;8.736;2023-07-20T15:29:09;2.70;;;1.50;;
72117;SDS011;59992;47.490;8.736;2023-07-20T15:31:59;4.10;;;1.40;;
72117;SDS011;59992;47.490;8.736;2023-07-20T15:34:49;5.00;;;1.40;;
72117;SDS011;59992;47.490;8.736;2023-07-20T15:37:39;3.30;;;1.40;;
72117;SDS011;59992;47.490;8.736;2023-07-20T15:40:29;4.20;;;1.80;;
72117;SDS011;59992;47.490;8.736;2023-07-20T15:43:19;5.30;;;1.50;;
72117;SDS011;59992;47.490;8.736;2023-07-20T15:49:29;6.00;;;1.40;;
72117;SDS011;59992;47.490;8.736;2023-07-20T15:52:20;4.70;;;1.50;;
72117;SDS011;59992;47.490;8.736;2023-07-20T15:55:11;2.60;;;1.30;;
72117;SDS011;59992;47.490;8.736;2023-07-20T15:58:02;3.90;;;1.50;;
72117;SDS011;59992;47.490;8.736;2023-07-20T16:00:54;5.10;;;1.60;;
72117;SDS011;59992;47.490;8.736;2023-07-20T16:03:45;5.30;;;1.30;;
72117;SDS011;59992;47.490;8.736;2023-07-20T16:06:35;3.20;;;1.40;;
72117;SDS011;59992;47.490;8.736;2023-07-20T16:09:25;4.70;;;1.30;;
72117;SDS011;59992;47.490;8.736;2023-07-20T16:12:16;4.10;;;1.50;;
72117;SDS011;59992;47.490;8.736;2023-07-20T16:15:13;2.50;;;1.20;;
72117;SDS011;59992;47.490;8.736;2023-07-20T16:18:03;3.10;;;1.40;;
72117;SDS011;59992;47.490;8.736;2023-07-20T16:20:54;4.90;;;1.50;;
72117;SDS011;59992;47.490;8.736;2023-07-20T16:23:46;3.30;;;1.50;;
72117;SDS011;59992;47.490;8.736;2023-07-20T16:26:36;3.20;;;1.70;;
72117;SDS011;59992;47.490;8.736;2023-07-20T16:29:30;6.30;;;1.80;;
72117;SDS011;59992;47.490;8.736;2023-07-20T16:32:20;3.60;;;1.60;;
72117;SDS011;59992;47.490;8.736;2023-07-20T16:35:10;5.20;;;1.70;;
72117;SDS011;59992;47.490;8.736;2023-07-20T16:38:01;5.90;;;2.10;;
72117;SDS011;59992;47.490;8.736;2023-07-20T16:40:51;5.00;;;1.40;;
72117;SDS011;59992;47.490;8.736;2023-07-20T16:43:45;2.20;;;1.20;;
72117;SDS011;59992;47.490;8.736;2023-07-20T16:46:35;2.50;;;1.30;;
72117;SDS011;59992;47.490;8.736;2023-07-20T16:49:25;3.60;;;1.30;;
72117;SDS011;59992;47.490;8.736;2023-07-20T16:52:17;2.90;;;1.50;;
72117;SDS011;59992;47.490;8.736;2023-07-20T16:55:07;2.30;;;1.20;;
72117;SDS011;59992;47.490;8.736;2023-07-20T16:57:58;2.70;;;1.70;;
72117;SDS011;59992;47.490;8.736;2023-07-20T17:00:49;2.80;;;1.80;;
72117;SDS011;59992;47.490;8.736;2023-07-20T17:03:39;2.90;;;1.50;;
72117;SDS011;59992;47.490;8.736;2023-07-20T17:06:30;3.20;;;1.60;;
72117;SDS011;59992;47.490;8.736;2023-07-20T17:09:20;2.50;;;1.50;;
72117;SDS011;59992;47.490;8.736;2023-07-20T17:12:11;3.80;;;1.20;;
72117;SDS011;59992;47.490;8.736;2023-07-20T17:15:01;3.50;;;1.50;;